Portada
METAR-TAF:

METAR-TAF

Aeroports :

Valdosta Regional Airport

Valdosta, Geòrgia, Estats Units d'Amèrica

latitud: 30-47N, longitud: 083-17W, altitud: 62 m

Observació

L'informe es va fer fa 16 minuts, a les 05:53 UTC
Vent calma
Temperatura 22°C
Humitat 88%
Pressió 1016 hPa
Visibilitat: 14.5 km
Cel clar

METAR: KVLD 160553Z AUTO 00000KT 9SM CLR 22/20 A3001 RMK AO2 SLP167 T02170200 10294 20217 55003

Hora: 02:09 (06:09 UTC)

Pronòstic

L'informe es va fer fa 49 minuts, a les 05:20 UTC
Pronòstic vàlid del 16 a les 06 UTC al 17 a les 06 UTC
Vent kt del Nord
Visibilitat: 10 km
Cel clar
A partir de les 16 a les 1400 UTC
Vent 9 kt del Nord/Nord-Est
Visibilitat: 10 km
Núvols disperses a una alçada de 4500 ft
A partir de les 17 a les 0000 UTC
Vent kt del Nord
Visibilitat: 10 km
Cel clar

TAF: KVLD 160520Z 1606/1706 00000KT P6SM SKC FM161400 03009KT P6SM SCT045 FM170000 00000KT P6SM SKC

Observacions i pronòstics meteorològics de més de 4000 aeroports (METAR i TAF).

Les estacions disponibles són els punts grocs i vermells al mapa.

Posi el ratolí al punt desitjat per veure el nom de l'estació.

Feu clic per veure les observacions i els pronòstics meteorològics.

Per canviar el mapa: feu clic els botons verds amb una creu de color negre per apropar; al botó verd amb un guió per allunyar la imatge; o en les fletxes verdes per a mapes adjacents.


METAR-TAF: